createdAt,value
2022-12-31T00:01:53.523Z,3.71
2022-12-31T00:04:40.749Z,4.12
2022-12-31T00:07:26.583Z,4.15
2022-12-31T00:10:14.729Z,3.84
2022-12-31T00:13:01.424Z,4.18
2022-12-31T00:15:48.775Z,4.11
2022-12-31T00:18:36.197Z,3.74
2022-12-31T00:21:23.008Z,4.26
2022-12-31T00:24:11.859Z,4.05
2022-12-31T00:27:06.720Z,4.09
2022-12-31T00:29:53.027Z,4.08
2022-12-31T00:32:40.057Z,4.27
2022-12-31T00:35:27.205Z,3.84
2022-12-31T00:38:14.464Z,4.33
2022-12-31T00:41:01.751Z,4.44
2022-12-31T00:43:49.636Z,4.57
2022-12-31T00:49:24.623Z,4.58
2022-12-31T00:52:14.056Z,4.54
2022-12-31T00:55:00.319Z,4.72
2022-12-31T00:57:47.749Z,4.53
2022-12-31T01:00:34.547Z,4.68
2022-12-31T01:03:21.277Z,4.51
2022-12-31T01:06:09.675Z,4.83
2022-12-31T01:08:56.829Z,4.45
2022-12-31T01:11:45.965Z,4.24
2022-12-31T01:14:34.529Z,4.53
2022-12-31T01:17:21.017Z,4.74
2022-12-31T01:20:07.997Z,4.50
2022-12-31T01:22:54.279Z,4.92
2022-12-31T01:25:42.477Z,4.73
2022-12-31T01:28:31.424Z,5.18
2022-12-31T01:31:20.366Z,4.92
2022-12-31T01:34:07.732Z,4.86
2022-12-31T01:36:53.652Z,5.10
2022-12-31T01:39:43.184Z,4.78
2022-12-31T01:42:30.474Z,4.85
2022-12-31T01:45:17.538Z,5.05
2022-12-31T01:48:04.421Z,5.29
2022-12-31T01:50:53.313Z,5.32
2022-12-31T01:53:40.992Z,5.32
2022-12-31T01:56:27.545Z,5.02
2022-12-31T01:59:14.956Z,5.78
2022-12-31T02:02:02.229Z,5.49
2022-12-31T02:04:50.766Z,5.45
2022-12-31T02:07:38.038Z,5.20
2022-12-31T02:10:24.614Z,5.45
2022-12-31T02:13:11.419Z,5.94
2022-12-31T02:16:11.132Z,5.57
2022-12-31T02:18:59.860Z,6.03
2022-12-31T02:21:49.742Z,6.07
2022-12-31T02:24:59.623Z,5.98
2022-12-31T02:28:29.330Z,6.03
2022-12-31T02:31:19.830Z,5.95
2022-12-31T02:34:21.783Z,5.95
2022-12-31T02:37:11.456Z,6.09
2022-12-31T02:39:58.062Z,5.94
2022-12-31T02:42:51.513Z,6.24
2022-12-31T02:45:46.137Z,6.20
2022-12-31T02:48:56.484Z,5.84
2022-12-31T02:52:01.352Z,5.64
2022-12-31T02:55:10.673Z,6.30
2022-12-31T02:58:17.439Z,6.30
2022-12-31T03:01:22.944Z,6.08
2022-12-31T03:04:33.090Z,6.22
2022-12-31T03:07:25.081Z,6.17
2022-12-31T03:10:12.348Z,6.35
2022-12-31T03:13:01.751Z,6.38
2022-12-31T03:15:49.711Z,6.23
2022-12-31T03:18:56.877Z,6.12
2022-12-31T03:22:02.008Z,6.22
2022-12-31T03:25:07.398Z,6.47
2022-12-31T03:27:54.336Z,6.25
2022-12-31T03:30:42.773Z,6.39
2022-12-31T03:33:36.317Z,6.29
2022-12-31T03:36:23.044Z,6.60
2022-12-31T03:39:08.950Z,6.57
2022-12-31T03:41:56.113Z,6.66
2022-12-31T03:44:42.775Z,6.59
2022-12-31T03:47:30.712Z,6.31
2022-12-31T03:50:18.490Z,6.29
2022-12-31T03:53:05.825Z,6.51
2022-12-31T03:55:53.351Z,6.76
2022-12-31T03:58:39.902Z,6.47
2022-12-31T04:01:26.831Z,6.80
2022-12-31T04:04:14.138Z,6.35
2022-12-31T04:07:01.189Z,6.41
2022-12-31T04:09:47.975Z,6.21
2022-12-31T04:12:35.608Z,6.88
2022-12-31T04:15:23.927Z,6.66
2022-12-31T04:18:11.388Z,6.55
2022-12-31T04:21:05.206Z,6.94
2022-12-31T04:23:51.713Z,6.75
2022-12-31T04:26:39.053Z,6.99
2022-12-31T04:29:26.312Z,6.72
2022-12-31T04:32:12.924Z,6.38
2022-12-31T04:35:00.518Z,6.59
2022-12-31T04:37:48.140Z,6.50
2022-12-31T04:40:34.634Z,6.24
2022-12-31T04:43:21.698Z,6.98
2022-12-31T04:46:08.054Z,6.76
2022-12-31T04:48:56.667Z,6.93
2022-12-31T04:51:43.397Z,6.96
2022-12-31T04:54:31.641Z,6.90
2022-12-31T04:57:18.668Z,6.30
2022-12-31T05:00:07.146Z,6.90
2022-12-31T05:02:53.429Z,6.73
2022-12-31T05:05:45.689Z,6.80
2022-12-31T05:08:34.029Z,6.63
2022-12-31T05:11:21.258Z,6.44
2022-12-31T05:14:07.449Z,6.88
2022-12-31T05:16:54.203Z,6.89
2022-12-31T05:19:40.670Z,6.89
2022-12-31T05:22:29.994Z,6.90
2022-12-31T05:25:16.563Z,6.79
2022-12-31T05:28:04.522Z,7.06
2022-12-31T05:30:53.063Z,6.68
2022-12-31T05:33:39.737Z,6.45
2022-12-31T05:36:25.999Z,6.49
2022-12-31T05:39:13.881Z,6.79
2022-12-31T05:42:00.030Z,6.81
2022-12-31T05:44:47.305Z,6.96
2022-12-31T05:47:34.359Z,6.73
2022-12-31T05:50:21.569Z,6.66
2022-12-31T05:53:14.876Z,6.36
2022-12-31T05:56:02.640Z,6.34
2022-12-31T05:58:48.941Z,6.61
2022-12-31T06:01:35.729Z,6.66
2022-12-31T06:04:22.222Z,6.77
2022-12-31T06:07:11.188Z,6.76
2022-12-31T06:09:58.366Z,6.82
2022-12-31T06:12:44.991Z,6.74
2022-12-31T06:15:32.080Z,6.95
2022-12-31T06:18:19.471Z,6.98
2022-12-31T06:21:06.586Z,6.66
2022-12-31T06:23:56.086Z,6.96
2022-12-31T06:26:43.996Z,6.83
2022-12-31T06:29:31.737Z,6.25
2022-12-31T06:32:19.603Z,6.40
2022-12-31T06:35:07.325Z,6.48
2022-12-31T06:37:53.823Z,6.31
2022-12-31T06:40:40.842Z,6.68
2022-12-31T06:43:27.192Z,6.61
2022-12-31T06:46:18.059Z,6.56
2022-12-31T06:49:05.344Z,6.82
2022-12-31T06:51:52.489Z,6.45
2022-12-31T06:54:38.586Z,6.30
2022-12-31T06:57:26.210Z,6.78
2022-12-31T07:00:15.145Z,6.83
2022-12-31T07:03:28.306Z,6.92
2022-12-31T07:06:27.817Z,6.94
2022-12-31T07:09:20.819Z,6.96
2022-12-31T07:12:26.722Z,6.96
2022-12-31T07:15:41.703Z,6.96
2022-12-31T07:18:37.433Z,6.98
2022-12-31T07:21:39.139Z,6.95
2022-12-31T07:24:26.523Z,6.65
2022-12-31T07:27:52.171Z,6.89
2022-12-31T07:30:49.387Z,6.96
2022-12-31T07:33:45.635Z,6.98
2022-12-31T07:36:54.491Z,6.88
2022-12-31T07:39:45.945Z,6.98
2022-12-31T07:43:07.597Z,6.78
2022-12-31T07:46:03.786Z,6.99
2022-12-31T07:48:50.077Z,6.81
2022-12-31T07:51:42.065Z,6.58
2022-12-31T07:54:28.278Z,6.49
2022-12-31T07:57:18.018Z,6.52
2022-12-31T08:00:12.991Z,6.97
2022-12-31T08:03:14.108Z,7.02
2022-12-31T08:06:09.987Z,6.83
2022-12-31T08:09:29.923Z,7.31
2022-12-31T08:12:17.038Z,6.98
2022-12-31T08:15:04.054Z,7.10
2022-12-31T08:17:50.453Z,7.37
2022-12-31T08:20:55.762Z,6.85
2022-12-31T08:24:02.417Z,7.42
2022-12-31T08:27:08.014Z,7.46
2022-12-31T08:30:20.021Z,7.49
2022-12-31T08:33:14.048Z,7.56
2022-12-31T08:36:16.680Z,7.47
2022-12-31T08:39:58.207Z,7.46
2022-12-31T08:42:58.881Z,7.74
2022-12-31T08:45:47.922Z,7.80
2022-12-31T08:48:41.404Z,7.45
2022-12-31T08:51:28.099Z,7.85
2022-12-31T08:54:14.406Z,7.75
2022-12-31T08:57:06.844Z,7.96
2022-12-31T09:00:07.377Z,7.59
2022-12-31T09:03:14.956Z,7.98
2022-12-31T09:06:07.006Z,7.98
2022-12-31T09:09:11.695Z,7.99
2022-12-31T09:12:04.460Z,8.01
2022-12-31T09:14:57.062Z,7.82
2022-12-31T09:17:54.286Z,7.52
2022-12-31T09:20:43.903Z,7.79
2022-12-31T09:23:30.398Z,7.77
2022-12-31T09:26:28.604Z,8.23
2022-12-31T09:29:17.772Z,8.26
2022-12-31T09:32:37.511Z,7.98
2022-12-31T09:35:26.220Z,8.42
2022-12-31T09:38:38.333Z,8.52
2022-12-31T09:41:42.800Z,8.30
2022-12-31T09:44:57.338Z,8.51
2022-12-31T09:47:58.512Z,8.71
2022-12-31T09:51:33.260Z,8.80
2022-12-31T09:54:22.089Z,8.96
2022-12-31T09:57:26.752Z,9.08
2022-12-31T10:00:21.401Z,9.20
2022-12-31T10:03:38.093Z,9.15
2022-12-31T10:06:28.764Z,9.25
2022-12-31T10:09:21.765Z,9.41
2022-12-31T10:12:19.466Z,9.46
2022-12-31T10:15:18.391Z,9.44
2022-12-31T10:18:25.049Z,9.56
2022-12-31T10:21:40.130Z,9.55
2022-12-31T10:25:01.832Z,9.55
2022-12-31T10:28:07.092Z,9.78
2022-12-31T10:31:05.286Z,9.88
2022-12-31T10:34:01.627Z,9.97
2022-12-31T10:36:58.512Z,9.96
2022-12-31T10:40:09.403Z,10.17
2022-12-31T10:43:22.881Z,10.27
2022-12-31T10:46:28.484Z,10.34
2022-12-31T10:49:36.044Z,10.25
2022-12-31T10:52:57.452Z,10.53
2022-12-31T10:56:02.372Z,10.62
2022-12-31T10:59:03.826Z,10.72
2022-12-31T11:02:08.918Z,10.78
2022-12-31T11:05:21.503Z,10.50
2022-12-31T11:08:43.770Z,10.64
2022-12-31T11:11:37.431Z,10.61
2022-12-31T11:14:38.806Z,10.79
2022-12-31T11:17:28.595Z,11.27
2022-12-31T11:20:29.640Z,11.32
2022-12-31T11:23:34.713Z,11.37
2022-12-31T11:26:29.702Z,11.43
2022-12-31T11:29:40.724Z,11.48
2022-12-31T11:32:49.213Z,11.53
2022-12-31T11:36:29.436Z,11.19
2022-12-31T11:39:40.231Z,11.14
2022-12-31T11:42:47.700Z,11.74
2022-12-31T11:45:57.857Z,11.79
2022-12-31T11:49:12.440Z,11.75
2022-12-31T11:52:21.172Z,11.43
2022-12-31T11:55:26.312Z,11.90
2022-12-31T11:58:20.859Z,11.67
2022-12-31T12:01:37.231Z,11.35
2022-12-31T12:04:24.572Z,11.24
2022-12-31T12:07:13.883Z,11.56
2022-12-31T12:10:04.350Z,11.70
2022-12-31T12:12:52.253Z,11.37
2022-12-31T12:15:38.713Z,11.96
2022-12-31T12:18:41.062Z,11.91
2022-12-31T12:21:29.244Z,11.92
2022-12-31T12:24:31.347Z,12.01
2022-12-31T12:27:37.498Z,12.00
2022-12-31T12:30:27.868Z,11.95
2022-12-31T12:33:23.417Z,11.86
2022-12-31T12:36:12.908Z,11.96
2022-12-31T12:39:09.051Z,11.91
2022-12-31T12:42:15.758Z,11.86
2022-12-31T12:45:21.059Z,12.01
2022-12-31T12:48:16.989Z,12.01
2022-12-31T12:51:34.371Z,12.02
2022-12-31T12:54:32.919Z,12.10
2022-12-31T12:57:34.623Z,11.91
2022-12-31T13:00:23.795Z,11.84
2022-12-31T13:04:14.717Z,12.13
2022-12-31T13:07:17.075Z,12.12
2022-12-31T13:10:18.525Z,12.08
2022-12-31T13:13:25.421Z,12.06
2022-12-31T13:16:14.517Z,12.08
2022-12-31T13:19:07.633Z,12.08
2022-12-31T13:22:02.402Z,12.11
2022-12-31T13:25:17.095Z,12.10
2022-12-31T13:28:05.517Z,12.01
2022-12-31T13:31:06.336Z,11.71
2022-12-31T13:34:00.344Z,12.05
2022-12-31T13:36:49.149Z,12.07
2022-12-31T13:39:40.119Z,12.05
2022-12-31T13:42:36.938Z,12.02
2022-12-31T13:45:29.164Z,11.92
2022-12-31T13:48:19.523Z,11.56
2022-12-31T13:51:11.923Z,11.87
2022-12-31T13:54:04.496Z,11.40
2022-12-31T13:56:51.841Z,11.87
2022-12-31T13:59:40.208Z,11.79
2022-12-31T14:02:32.365Z,11.55
2022-12-31T14:05:25.939Z,11.83
2022-12-31T14:08:11.953Z,11.83
2022-12-31T14:11:07.758Z,11.80
2022-12-31T14:14:15.240Z,11.78
2022-12-31T14:17:36.759Z,11.77
2022-12-31T14:20:48.478Z,11.78
2022-12-31T14:23:59.609Z,11.45
2022-12-31T14:26:54.491Z,11.60
2022-12-31T14:29:53.799Z,11.44
2022-12-31T14:33:01.024Z,11.62
2022-12-31T14:36:10.370Z,11.59
2022-12-31T14:39:28.183Z,11.54
2022-12-31T14:42:41.774Z,11.45
2022-12-31T14:45:42.464Z,11.40
2022-12-31T14:49:03.725Z,11.37
2022-12-31T14:51:49.826Z,11.31
2022-12-31T14:54:38.218Z,11.10
2022-12-31T14:57:26.602Z,11.06
2022-12-31T15:00:28.241Z,11.21
2022-12-31T15:03:14.142Z,11.19
2022-12-31T15:06:13.624Z,11.20
2022-12-31T15:09:18.491Z,10.99
2022-12-31T15:12:08.035Z,11.15
2022-12-31T15:15:12.085Z,11.16
2022-12-31T15:17:58.566Z,11.15
2022-12-31T15:21:24.053Z,11.00
2022-12-31T15:24:21.987Z,10.82
2022-12-31T15:27:27.097Z,11.18
2022-12-31T15:30:28.876Z,11.17
2022-12-31T15:33:32.278Z,11.19
2022-12-31T15:36:22.244Z,11.21
2022-12-31T15:39:12.280Z,11.22
2022-12-31T15:42:37.917Z,10.58
2022-12-31T15:45:37.668Z,11.05
2022-12-31T15:48:48.952Z,11.14
2022-12-31T15:52:04.342Z,11.08
2022-12-31T15:54:53.723Z,10.68
2022-12-31T15:57:41.838Z,10.78
2022-12-31T16:00:35.067Z,10.76
2022-12-31T16:03:27.590Z,10.79
2022-12-31T16:06:15.285Z,10.76
2022-12-31T16:09:01.289Z,10.72
2022-12-31T16:11:50.475Z,10.57
2022-12-31T16:14:43.736Z,10.70
2022-12-31T16:17:33.840Z,10.73
2022-12-31T16:20:26.441Z,10.01
2022-12-31T16:23:23.716Z,10.04
2022-12-31T16:26:10.162Z,10.06
2022-12-31T16:29:00.611Z,10.71
2022-12-31T16:31:47.519Z,10.39
2022-12-31T16:34:37.404Z,10.35
2022-12-31T16:37:23.728Z,10.55
2022-12-31T16:40:24.603Z,10.35
2022-12-31T16:43:28.328Z,10.79
2022-12-31T16:46:28.730Z,10.81
2022-12-31T16:49:20.534Z,10.70
2022-12-31T16:52:26.049Z,10.82
2022-12-31T16:55:33.019Z,10.54
2022-12-31T16:58:31.001Z,10.36
2022-12-31T17:01:18.449Z,10.77
2022-12-31T17:04:09.577Z,10.69
2022-12-31T17:06:55.566Z,10.60
2022-12-31T17:09:42.467Z,10.84
2022-12-31T17:12:29.227Z,10.79
2022-12-31T17:15:28.084Z,10.79
2022-12-31T17:18:19.532Z,10.50
2022-12-31T17:21:28.648Z,11.05
2022-12-31T17:24:14.868Z,11.15
2022-12-31T17:27:07.482Z,11.18
2022-12-31T17:29:54.870Z,11.44
2022-12-31T17:32:43.744Z,11.21
2022-12-31T17:35:36.151Z,11.34
2022-12-31T17:38:22.537Z,11.54
2022-12-31T17:41:08.227Z,11.59
2022-12-31T17:43:56.261Z,11.42
2022-12-31T17:46:42.678Z,11.33
2022-12-31T17:49:31.590Z,11.34
2022-12-31T17:52:17.828Z,11.26
2022-12-31T17:55:05.233Z,11.69
2022-12-31T17:57:56.123Z,11.51
2022-12-31T18:00:43.222Z,11.65
2022-12-31T18:03:29.035Z,11.49
2022-12-31T18:06:19.808Z,11.53
2022-12-31T18:09:05.986Z,11.71
2022-12-31T18:11:55.533Z,11.51
2022-12-31T18:14:46.261Z,11.60
2022-12-31T18:17:33.972Z,11.79
2022-12-31T18:20:20.001Z,11.70
2022-12-31T18:23:06.526Z,11.46
2022-12-31T18:25:53.161Z,11.67
2022-12-31T18:28:39.644Z,11.75
2022-12-31T18:31:28.238Z,11.49
2022-12-31T18:34:19.330Z,11.85
2022-12-31T18:37:15.173Z,11.83
2022-12-31T18:40:06.335Z,11.74
2022-12-31T18:42:52.781Z,11.71
2022-12-31T18:45:40.993Z,11.67
2022-12-31T18:48:32.347Z,11.27
2022-12-31T18:51:31.365Z,11.80
2022-12-31T18:54:18.995Z,11.08
2022-12-31T18:57:05.505Z,11.29
2022-12-31T18:59:51.243Z,11.59
2022-12-31T19:02:37.496Z,11.52
2022-12-31T19:05:32.396Z,11.50
2022-12-31T19:08:21.057Z,11.51
2022-12-31T19:11:06.865Z,11.46
2022-12-31T19:13:53.301Z,11.23
2022-12-31T19:16:39.364Z,11.38
2022-12-31T19:19:26.413Z,11.29
2022-12-31T19:22:15.716Z,11.36
2022-12-31T19:25:02.504Z,11.41
2022-12-31T19:27:48.597Z,11.34
2022-12-31T19:30:35.193Z,11.40
2022-12-31T19:33:21.536Z,11.43
2022-12-31T19:36:19.718Z,11.11
2022-12-31T19:39:06.745Z,11.58
2022-12-31T19:41:58.794Z,11.40
2022-12-31T19:44:46.458Z,11.27
2022-12-31T19:47:32.862Z,11.68
2022-12-31T19:50:27.387Z,11.41
2022-12-31T19:53:17.474Z,11.79
2022-12-31T19:56:03.413Z,11.79
2022-12-31T19:58:49.734Z,11.65
2022-12-31T20:01:35.558Z,11.86
2022-12-31T20:04:22.571Z,11.90
2022-12-31T20:07:09.024Z,12.01
2022-12-31T20:09:56.993Z,11.76
2022-12-31T20:12:44.785Z,11.99
2022-12-31T20:15:31.654Z,11.93
2022-12-31T20:18:21.212Z,12.03
2022-12-31T20:21:10.442Z,11.94
2022-12-31T20:23:56.687Z,11.93
2022-12-31T20:26:43.707Z,11.69
2022-12-31T20:29:30.458Z,11.91
2022-12-31T20:32:16.632Z,11.96
2022-12-31T20:35:05.543Z,11.80
2022-12-31T20:37:51.879Z,12.00
2022-12-31T20:40:44.587Z,11.94
2022-12-31T20:43:34.380Z,12.01
2022-12-31T20:46:22.852Z,11.81
2022-12-31T20:49:11.551Z,11.82
2022-12-31T20:51:57.273Z,11.80
2022-12-31T20:54:43.641Z,11.95
2022-12-31T20:57:33.568Z,11.96
2022-12-31T21:00:20.616Z,11.75
2022-12-31T21:03:23.742Z,11.79
2022-12-31T21:06:14.415Z,11.63
2022-12-31T21:09:01.711Z,11.80
2022-12-31T21:12:07.145Z,11.64
2022-12-31T21:14:53.027Z,11.81
2022-12-31T21:17:39.323Z,11.29
2022-12-31T21:20:25.383Z,11.71
2022-12-31T21:23:12.022Z,11.66
2022-12-31T21:25:58.295Z,11.31
2022-12-31T21:28:44.645Z,11.66
2022-12-31T21:31:30.790Z,11.58
2022-12-31T21:34:17.475Z,11.62
2022-12-31T21:37:03.619Z,11.47
2022-12-31T21:39:50.408Z,11.54
2022-12-31T21:42:36.678Z,11.56
2022-12-31T21:45:23.677Z,11.47
2022-12-31T21:48:23.525Z,11.59
2022-12-31T21:51:13.115Z,11.43
2022-12-31T21:53:59.164Z,11.51
2022-12-31T21:56:45.147Z,11.40
2022-12-31T22:00:16.117Z,11.15
2022-12-31T22:03:17.569Z,11.25
2022-12-31T22:06:06.004Z,11.57
2022-12-31T22:08:54.958Z,11.35
2022-12-31T22:11:41.428Z,11.46
2022-12-31T22:14:27.893Z,11.43
2022-12-31T22:17:13.712Z,11.63
2022-12-31T22:20:25.913Z,11.68
2022-12-31T22:23:05.995Z,11.58
2022-12-31T22:25:52.871Z,11.61
2022-12-31T22:28:40.646Z,11.67
2022-12-31T22:31:30.357Z,11.17
2022-12-31T22:34:17.062Z,11.49
2022-12-31T22:37:20.436Z,11.52
2022-12-31T22:40:10.192Z,11.55
2022-12-31T22:42:58.788Z,11.36
2022-12-31T22:45:44.754Z,11.40
2022-12-31T22:48:31.555Z,10.92
2022-12-31T22:51:18.854Z,11.42
2022-12-31T22:54:05.234Z,11.44
2022-12-31T22:56:51.133Z,11.58
2022-12-31T22:59:37.230Z,11.49
2022-12-31T23:02:23.164Z,11.29
2022-12-31T23:05:15.208Z,11.42
2022-12-31T23:08:07.328Z,11.47
2022-12-31T23:11:00.260Z,11.51
2022-12-31T23:14:07.480Z,11.52
2022-12-31T23:17:31.634Z,11.58
2022-12-31T23:20:39.503Z,11.46
2022-12-31T23:23:26.544Z,11.21
2022-12-31T23:26:12.828Z,11.61
2022-12-31T23:28:59.462Z,11.63
2022-12-31T23:31:45.493Z,11.44
2022-12-31T23:34:33.443Z,11.27
2022-12-31T23:37:20.405Z,11.44
2022-12-31T23:40:07.616Z,11.65
2022-12-31T23:42:54.199Z,11.40
2022-12-31T23:45:41.636Z,11.77
2022-12-31T23:48:27.595Z,11.29
2022-12-31T23:51:14.395Z,11.42
2022-12-31T23:54:01.766Z,11.50
2022-12-31T23:56:51.126Z,11.79
2022-12-31T23:59:37.771Z,11.84
